sensor_id;sensor_type;location;lat;lon;timestamp;P1;durP1;ratioP1;P2;durP2;ratioP2
5412;SDS011;2729;50.056;8.678;2023-04-24T00:00:11;1.40;;;0.90;;
5412;SDS011;2729;50.056;8.678;2023-04-24T00:02:41;2.00;;;1.00;;
5412;SDS011;2729;50.056;8.678;2023-04-24T00:05:12;2.13;;;0.90;;
5412;SDS011;2729;50.056;8.678;2023-04-24T00:07:39;0.90;;;0.90;;
5412;SDS011;2729;50.056;8.678;2023-04-24T00:10:07;1.57;;;0.90;;
5412;SDS011;2729;50.056;8.678;2023-04-24T00:12:33;0.90;;;0.90;;
5412;SDS011;2729;50.056;8.678;2023-04-24T00:14:59;1.50;;;1.13;;
5412;SDS011;2729;50.056;8.678;2023-04-24T00:17:26;1.10;;;0.93;;
5412;SDS011;2729;50.056;8.678;2023-04-24T00:19:52;1.13;;;1.13;;
5412;SDS011;2729;50.056;8.678;2023-04-24T00:22:24;1.20;;;1.10;;
5412;SDS011;2729;50.056;8.678;2023-04-24T00:24:51;1.00;;;1.00;;
5412;SDS011;2729;50.056;8.678;2023-04-24T00:27:17;2.40;;;0.87;;
5412;SDS011;2729;50.056;8.678;2023-04-24T00:29:43;1.13;;;1.03;;
5412;SDS011;2729;50.056;8.678;2023-04-24T00:32:09;1.17;;;1.17;;
5412;SDS011;2729;50.056;8.678;2023-04-24T00:34:35;1.00;;;1.00;;
5412;SDS011;2729;50.056;8.678;2023-04-24T00:37:01;0.80;;;0.80;;
5412;SDS011;2729;50.056;8.678;2023-04-24T00:39:27;1.00;;;1.00;;
5412;SDS011;2729;50.056;8.678;2023-04-24T00:41:53;1.00;;;1.00;;
5412;SDS011;2729;50.056;8.678;2023-04-24T00:44:19;2.40;;;1.57;;
5412;SDS011;2729;50.056;8.678;2023-04-24T00:46:45;0.97;;;0.93;;
5412;SDS011;2729;50.056;8.678;2023-04-24T00:49:13;1.10;;;1.00;;
5412;SDS011;2729;50.056;8.678;2023-04-24T00:51:39;0.73;;;0.73;;
5412;SDS011;2729;50.056;8.678;2023-04-24T00:54:06;1.33;;;0.97;;
5412;SDS011;2729;50.056;8.678;2023-04-24T00:56:32;1.13;;;0.90;;
5412;SDS011;2729;50.056;8.678;2023-04-24T00:58:58;0.73;;;0.73;;
5412;SDS011;2729;50.056;8.678;2023-04-24T01:01:24;0.90;;;0.90;;
5412;SDS011;2729;50.056;8.678;2023-04-24T01:03:50;1.13;;;1.13;;
5412;SDS011;2729;50.056;8.678;2023-04-24T01:06:17;0.90;;;0.80;;
5412;SDS011;2729;50.056;8.678;2023-04-24T01:08:44;0.90;;;0.90;;
5412;SDS011;2729;50.056;8.678;2023-04-24T01:11:12;1.07;;;0.90;;
5412;SDS011;2729;50.056;8.678;2023-04-24T01:13:38;0.70;;;0.70;;
5412;SDS011;2729;50.056;8.678;2023-04-24T01:16:05;1.17;;;0.93;;
5412;SDS011;2729;50.056;8.678;2023-04-24T01:18:31;1.13;;;0.97;;
5412;SDS011;2729;50.056;8.678;2023-04-24T01:20:58;1.80;;;0.90;;
5412;SDS011;2729;50.056;8.678;2023-04-24T01:23:25;1.70;;;1.00;;
5412;SDS011;2729;50.056;8.678;2023-04-24T01:25:54;0.93;;;0.93;;
5412;SDS011;2729;50.056;8.678;2023-04-24T01:28:20;1.23;;;1.20;;
5412;SDS011;2729;50.056;8.678;2023-04-24T01:30:47;1.03;;;1.03;;
5412;SDS011;2729;50.056;8.678;2023-04-24T01:33:13;1.03;;;1.03;;
5412;SDS011;2729;50.056;8.678;2023-04-24T01:35:40;0.90;;;0.90;;
5412;SDS011;2729;50.056;8.678;2023-04-24T01:38:08;1.07;;;0.90;;
5412;SDS011;2729;50.056;8.678;2023-04-24T01:40:35;2.10;;;0.90;;
5412;SDS011;2729;50.056;8.678;2023-04-24T01:43:01;0.77;;;0.77;;
5412;SDS011;2729;50.056;8.678;2023-04-24T01:45:29;0.80;;;0.80;;
5412;SDS011;2729;50.056;8.678;2023-04-24T01:47:56;1.50;;;0.80;;
5412;SDS011;2729;50.056;8.678;2023-04-24T01:50:23;1.30;;;1.03;;
5412;SDS011;2729;50.056;8.678;2023-04-24T01:52:49;0.93;;;0.80;;
5412;SDS011;2729;50.056;8.678;2023-04-24T01:55:15;1.03;;;0.83;;
5412;SDS011;2729;50.056;8.678;2023-04-24T01:57:41;0.80;;;0.80;;
5412;SDS011;2729;50.056;8.678;2023-04-24T02:00:07;0.90;;;0.90;;
5412;SDS011;2729;50.056;8.678;2023-04-24T02:02:40;0.90;;;0.90;;
5412;SDS011;2729;50.056;8.678;2023-04-24T02:05:07;0.90;;;0.80;;
5412;SDS011;2729;50.056;8.678;2023-04-24T02:07:35;1.47;;;0.90;;
5412;SDS011;2729;50.056;8.678;2023-04-24T02:10:02;0.70;;;0.70;;
5412;SDS011;2729;50.056;8.678;2023-04-24T02:12:29;1.50;;;1.20;;
5412;SDS011;2729;50.056;8.678;2023-04-24T02:14:55;1.50;;;1.10;;
5412;SDS011;2729;50.056;8.678;2023-04-24T02:17:21;1.80;;;1.10;;
5412;SDS011;2729;50.056;8.678;2023-04-24T02:19:48;1.83;;;0.77;;
5412;SDS011;2729;50.056;8.678;2023-04-24T02:22:14;0.93;;;0.90;;
5412;SDS011;2729;50.056;8.678;2023-04-24T02:24:40;0.93;;;0.93;;
5412;SDS011;2729;50.056;8.678;2023-04-24T02:27:06;0.70;;;0.70;;
5412;SDS011;2729;50.056;8.678;2023-04-24T02:29:32;1.43;;;0.90;;
5412;SDS011;2729;50.056;8.678;2023-04-24T02:31:58;0.73;;;0.73;;
5412;SDS011;2729;50.056;8.678;2023-04-24T02:34:24;2.83;;;1.50;;
5412;SDS011;2729;50.056;8.678;2023-04-24T02:36:50;1.37;;;1.20;;
5412;SDS011;2729;50.056;8.678;2023-04-24T02:39:16;1.53;;;0.90;;
5412;SDS011;2729;50.056;8.678;2023-04-24T02:41:43;1.10;;;1.10;;
5412;SDS011;2729;50.056;8.678;2023-04-24T02:44:09;0.87;;;0.87;;
5412;SDS011;2729;50.056;8.678;2023-04-24T02:46:35;0.83;;;0.83;;
5412;SDS011;2729;50.056;8.678;2023-04-24T02:49:01;0.90;;;0.90;;
5412;SDS011;2729;50.056;8.678;2023-04-24T02:51:29;1.73;;;0.90;;
5412;SDS011;2729;50.056;8.678;2023-04-24T02:53:55;1.10;;;1.10;;
5412;SDS011;2729;50.056;8.678;2023-04-24T02:56:21;2.37;;;1.00;;
5412;SDS011;2729;50.056;8.678;2023-04-24T02:58:47;5.70;;;1.60;;
5412;SDS011;2729;50.056;8.678;2023-04-24T03:01:13;1.00;;;0.90;;
5412;SDS011;2729;50.056;8.678;2023-04-24T03:03:39;1.63;;;1.07;;
5412;SDS011;2729;50.056;8.678;2023-04-24T03:06:05;1.23;;;1.10;;
5412;SDS011;2729;50.056;8.678;2023-04-24T03:08:31;1.00;;;0.90;;
5412;SDS011;2729;50.056;8.678;2023-04-24T03:10:58;1.80;;;1.07;;
5412;SDS011;2729;50.056;8.678;2023-04-24T03:13:24;0.90;;;0.90;;
5412;SDS011;2729;50.056;8.678;2023-04-24T03:15:50;0.90;;;0.90;;
5412;SDS011;2729;50.056;8.678;2023-04-24T03:18:16;1.60;;;0.90;;
5412;SDS011;2729;50.056;8.678;2023-04-24T03:20:42;1.30;;;1.20;;
5412;SDS011;2729;50.056;8.678;2023-04-24T03:23:10;9.63;;;0.90;;
5412;SDS011;2729;50.056;8.678;2023-04-24T03:25:38;1.03;;;1.00;;
5412;SDS011;2729;50.056;8.678;2023-04-24T03:28:04;1.00;;;1.00;;
5412;SDS011;2729;50.056;8.678;2023-04-24T03:30:37;1.00;;;1.00;;
5412;SDS011;2729;50.056;8.678;2023-04-24T03:33:04;1.20;;;1.10;;
5412;SDS011;2729;50.056;8.678;2023-04-24T03:35:33;0.80;;;0.80;;
5412;SDS011;2729;50.056;8.678;2023-04-24T03:38:02;1.27;;;1.17;;
5412;SDS011;2729;50.056;8.678;2023-04-24T03:40:49;1.60;;;0.97;;
5412;SDS011;2729;50.056;8.678;2023-04-24T03:43:40;2.10;;;1.00;;
5412;SDS011;2729;50.056;8.678;2023-04-24T03:46:07;1.20;;;1.10;;
5412;SDS011;2729;50.056;8.678;2023-04-24T03:48:38;0.80;;;0.80;;
5412;SDS011;2729;50.056;8.678;2023-04-24T03:51:05;0.83;;;0.83;;
5412;SDS011;2729;50.056;8.678;2023-04-24T03:53:32;1.00;;;1.00;;
5412;SDS011;2729;50.056;8.678;2023-04-24T03:55:59;3.23;;;1.20;;
5412;SDS011;2729;50.056;8.678;2023-04-24T03:58:24;1.17;;;1.17;;
5412;SDS011;2729;50.056;8.678;2023-04-24T04:00:52;0.97;;;0.90;;
5412;SDS011;2729;50.056;8.678;2023-04-24T04:03:37;1.17;;;1.10;;
5412;SDS011;2729;50.056;8.678;2023-04-24T04:06:03;1.10;;;0.93;;
5412;SDS011;2729;50.056;8.678;2023-04-24T04:08:29;3.23;;;0.90;;
5412;SDS011;2729;50.056;8.678;2023-04-24T04:10:56;0.90;;;0.90;;
5412;SDS011;2729;50.056;8.678;2023-04-24T04:13:22;1.10;;;1.07;;
5412;SDS011;2729;50.056;8.678;2023-04-24T04:15:48;1.63;;;1.30;;
5412;SDS011;2729;50.056;8.678;2023-04-24T04:18:15;1.03;;;1.03;;
5412;SDS011;2729;50.056;8.678;2023-04-24T04:20:41;0.80;;;0.80;;
5412;SDS011;2729;50.056;8.678;2023-04-24T04:23:07;1.90;;;1.13;;
5412;SDS011;2729;50.056;8.678;2023-04-24T04:25:42;1.67;;;1.20;;
5412;SDS011;2729;50.056;8.678;2023-04-24T04:28:08;1.30;;;1.20;;
5412;SDS011;2729;50.056;8.678;2023-04-24T04:30:34;4.93;;;1.00;;
5412;SDS011;2729;50.056;8.678;2023-04-24T04:33:03;1.00;;;1.00;;
5412;SDS011;2729;50.056;8.678;2023-04-24T04:35:30;1.47;;;1.20;;
5412;SDS011;2729;50.056;8.678;2023-04-24T04:37:56;2.83;;;1.60;;
5412;SDS011;2729;50.056;8.678;2023-04-24T04:40:27;1.10;;;1.10;;
5412;SDS011;2729;50.056;8.678;2023-04-24T04:42:59;0.93;;;0.93;;
5412;SDS011;2729;50.056;8.678;2023-04-24T04:45:28;1.00;;;1.00;;
5412;SDS011;2729;50.056;8.678;2023-04-24T04:48:17;2.30;;;1.27;;
5412;SDS011;2729;50.056;8.678;2023-04-24T04:50:44;1.70;;;1.20;;
5412;SDS011;2729;50.056;8.678;2023-04-24T04:53:11;1.20;;;1.20;;
5412;SDS011;2729;50.056;8.678;2023-04-24T04:55:38;1.10;;;1.10;;
5412;SDS011;2729;50.056;8.678;2023-04-24T04:58:09;1.07;;;1.00;;
5412;SDS011;2729;50.056;8.678;2023-04-24T05:00:36;1.53;;;1.20;;
5412;SDS011;2729;50.056;8.678;2023-04-24T05:03:11;1.40;;;1.30;;
5412;SDS011;2729;50.056;8.678;2023-04-24T05:05:37;1.10;;;1.10;;
5412;SDS011;2729;50.056;8.678;2023-04-24T05:08:07;1.50;;;1.40;;
5412;SDS011;2729;50.056;8.678;2023-04-24T05:10:34;1.00;;;1.00;;
5412;SDS011;2729;50.056;8.678;2023-04-24T05:13:00;1.20;;;1.10;;
5412;SDS011;2729;50.056;8.678;2023-04-24T05:15:26;1.73;;;1.30;;
5412;SDS011;2729;50.056;8.678;2023-04-24T05:17:52;1.60;;;1.50;;
5412;SDS011;2729;50.056;8.678;2023-04-24T05:20:19;1.00;;;1.00;;
5412;SDS011;2729;50.056;8.678;2023-04-24T05:22:45;1.17;;;1.17;;
5412;SDS011;2729;50.056;8.678;2023-04-24T05:25:13;1.23;;;1.23;;
5412;SDS011;2729;50.056;8.678;2023-04-24T05:27:45;1.10;;;1.10;;
5412;SDS011;2729;50.056;8.678;2023-04-24T05:30:14;1.60;;;1.50;;
5412;SDS011;2729;50.056;8.678;2023-04-24T05:32:41;1.40;;;1.40;;
5412;SDS011;2729;50.056;8.678;2023-04-24T05:35:07;2.90;;;1.17;;
5412;SDS011;2729;50.056;8.678;2023-04-24T05:37:33;1.43;;;1.33;;
5412;SDS011;2729;50.056;8.678;2023-04-24T05:39:59;1.30;;;1.20;;
5412;SDS011;2729;50.056;8.678;2023-04-24T05:42:26;1.37;;;1.37;;
5412;SDS011;2729;50.056;8.678;2023-04-24T05:44:51;1.73;;;1.63;;
5412;SDS011;2729;50.056;8.678;2023-04-24T05:47:19;1.80;;;1.70;;
5412;SDS011;2729;50.056;8.678;2023-04-24T05:49:47;1.57;;;1.50;;
5412;SDS011;2729;50.056;8.678;2023-04-24T05:52:13;1.60;;;1.60;;
5412;SDS011;2729;50.056;8.678;2023-04-24T05:54:40;1.93;;;1.40;;
5412;SDS011;2729;50.056;8.678;2023-04-24T05:57:07;2.00;;;1.40;;
5412;SDS011;2729;50.056;8.678;2023-04-24T05:59:47;1.43;;;1.33;;
5412;SDS011;2729;50.056;8.678;2023-04-24T06:02:13;1.30;;;1.20;;
5412;SDS011;2729;50.056;8.678;2023-04-24T06:04:39;1.70;;;1.60;;
5412;SDS011;2729;50.056;8.678;2023-04-24T06:07:05;1.70;;;1.47;;
5412;SDS011;2729;50.056;8.678;2023-04-24T06:09:31;1.73;;;1.63;;
5412;SDS011;2729;50.056;8.678;2023-04-24T06:11:57;1.60;;;1.50;;
5412;SDS011;2729;50.056;8.678;2023-04-24T06:14:29;2.27;;;1.40;;
5412;SDS011;2729;50.056;8.678;2023-04-24T06:17:13;1.60;;;1.50;;
5412;SDS011;2729;50.056;8.678;2023-04-24T06:19:40;1.50;;;1.47;;
5412;SDS011;2729;50.056;8.678;2023-04-24T06:22:06;1.53;;;1.43;;
5412;SDS011;2729;50.056;8.678;2023-04-24T06:24:33;2.30;;;2.10;;
5412;SDS011;2729;50.056;8.678;2023-04-24T06:27:00;1.40;;;1.40;;
5412;SDS011;2729;50.056;8.678;2023-04-24T06:29:27;1.53;;;1.40;;
5412;SDS011;2729;50.056;8.678;2023-04-24T06:31:53;4.30;;;1.60;;
5412;SDS011;2729;50.056;8.678;2023-04-24T06:34:19;3.03;;;1.50;;
5412;SDS011;2729;50.056;8.678;2023-04-24T06:36:46;1.90;;;1.80;;
5412;SDS011;2729;50.056;8.678;2023-04-24T06:39:12;1.80;;;1.70;;
5412;SDS011;2729;50.056;8.678;2023-04-24T06:41:38;1.40;;;1.40;;
5412;SDS011;2729;50.056;8.678;2023-04-24T06:44:05;1.43;;;1.40;;
5412;SDS011;2729;50.056;8.678;2023-04-24T06:46:31;1.70;;;1.60;;
5412;SDS011;2729;50.056;8.678;2023-04-24T06:48:57;1.90;;;1.80;;
5412;SDS011;2729;50.056;8.678;2023-04-24T06:51:23;1.67;;;1.57;;
5412;SDS011;2729;50.056;8.678;2023-04-24T06:53:51;3.23;;;1.73;;
5412;SDS011;2729;50.056;8.678;2023-04-24T06:56:17;1.80;;;1.70;;
5412;SDS011;2729;50.056;8.678;2023-04-24T06:58:43;2.80;;;1.60;;
5412;SDS011;2729;50.056;8.678;2023-04-24T07:01:10;1.87;;;1.77;;
5412;SDS011;2729;50.056;8.678;2023-04-24T07:03:37;1.90;;;1.80;;
5412;SDS011;2729;50.056;8.678;2023-04-24T07:06:03;1.73;;;1.63;;
5412;SDS011;2729;50.056;8.678;2023-04-24T07:08:29;1.53;;;1.50;;
5412;SDS011;2729;50.056;8.678;2023-04-24T07:10:58;2.17;;;1.93;;
5412;SDS011;2729;50.056;8.678;2023-04-24T07:13:26;2.27;;;1.83;;
5412;SDS011;2729;50.056;8.678;2023-04-24T07:15:53;2.23;;;2.03;;
5412;SDS011;2729;50.056;8.678;2023-04-24T07:18:20;3.67;;;1.90;;
5412;SDS011;2729;50.056;8.678;2023-04-24T07:20:47;1.50;;;1.50;;
5412;SDS011;2729;50.056;8.678;2023-04-24T07:23:13;1.30;;;1.30;;
5412;SDS011;2729;50.056;8.678;2023-04-24T07:25:38;1.90;;;1.77;;
5412;SDS011;2729;50.056;8.678;2023-04-24T07:28:05;2.20;;;1.90;;
5412;SDS011;2729;50.056;8.678;2023-04-24T07:30:31;1.80;;;1.70;;
5412;SDS011;2729;50.056;8.678;2023-04-24T07:32:58;2.20;;;2.00;;
5412;SDS011;2729;50.056;8.678;2023-04-24T07:35:24;2.73;;;1.73;;
5412;SDS011;2729;50.056;8.678;2023-04-24T07:37:52;2.03;;;1.80;;
5412;SDS011;2729;50.056;8.678;2023-04-24T07:40:19;2.30;;;2.10;;
5412;SDS011;2729;50.056;8.678;2023-04-24T07:42:46;2.13;;;1.63;;
5412;SDS011;2729;50.056;8.678;2023-04-24T07:45:14;2.30;;;1.80;;
5412;SDS011;2729;50.056;8.678;2023-04-24T07:47:43;1.60;;;1.50;;
5412;SDS011;2729;50.056;8.678;2023-04-24T07:50:11;1.87;;;1.67;;
5412;SDS011;2729;50.056;8.678;2023-04-24T07:52:38;1.90;;;1.47;;
5412;SDS011;2729;50.056;8.678;2023-04-24T07:55:04;1.90;;;1.80;;
5412;SDS011;2729;50.056;8.678;2023-04-24T07:57:31;2.00;;;1.90;;
5412;SDS011;2729;50.056;8.678;2023-04-24T07:59:56;2.60;;;1.70;;
5412;SDS011;2729;50.056;8.678;2023-04-24T08:02:22;1.70;;;1.60;;
5412;SDS011;2729;50.056;8.678;2023-04-24T08:04:55;1.10;;;1.10;;
5412;SDS011;2729;50.056;8.678;2023-04-24T08:07:21;1.90;;;1.80;;
5412;SDS011;2729;50.056;8.678;2023-04-24T08:09:47;1.50;;;1.40;;
5412;SDS011;2729;50.056;8.678;2023-04-24T08:12:13;1.80;;;1.70;;
5412;SDS011;2729;50.056;8.678;2023-04-24T08:14:39;2.37;;;2.17;;
5412;SDS011;2729;50.056;8.678;2023-04-24T08:17:05;1.80;;;1.70;;
5412;SDS011;2729;50.056;8.678;2023-04-24T08:19:31;2.30;;;2.20;;
5412;SDS011;2729;50.056;8.678;2023-04-24T08:21:57;2.13;;;1.43;;
5412;SDS011;2729;50.056;8.678;2023-04-24T08:24:23;2.30;;;1.83;;
5412;SDS011;2729;50.056;8.678;2023-04-24T08:26:49;1.93;;;1.83;;
5412;SDS011;2729;50.056;8.678;2023-04-24T08:29:19;2.20;;;2.00;;
5412;SDS011;2729;50.056;8.678;2023-04-24T08:31:45;1.73;;;1.63;;
5412;SDS011;2729;50.056;8.678;2023-04-24T08:34:11;1.80;;;1.70;;
5412;SDS011;2729;50.056;8.678;2023-04-24T08:36:37;2.00;;;1.90;;
5412;SDS011;2729;50.056;8.678;2023-04-24T08:39:03;2.63;;;1.63;;
5412;SDS011;2729;50.056;8.678;2023-04-24T08:41:29;2.03;;;1.80;;
5412;SDS011;2729;50.056;8.678;2023-04-24T08:43:56;2.20;;;2.07;;
5412;SDS011;2729;50.056;8.678;2023-04-24T08:46:24;3.60;;;2.03;;
5412;SDS011;2729;50.056;8.678;2023-04-24T08:48:50;2.30;;;1.60;;
5412;SDS011;2729;50.056;8.678;2023-04-24T08:51:17;1.70;;;1.60;;
5412;SDS011;2729;50.056;8.678;2023-04-24T08:53:44;1.47;;;1.37;;
5412;SDS011;2729;50.056;8.678;2023-04-24T08:56:11;1.30;;;1.30;;
5412;SDS011;2729;50.056;8.678;2023-04-24T08:58:37;2.13;;;1.77;;
5412;SDS011;2729;50.056;8.678;2023-04-24T09:01:04;1.67;;;1.57;;
5412;SDS011;2729;50.056;8.678;2023-04-24T09:03:30;3.13;;;2.00;;
5412;SDS011;2729;50.056;8.678;2023-04-24T09:05:58;1.63;;;1.50;;
5412;SDS011;2729;50.056;8.678;2023-04-24T09:08:25;1.47;;;1.47;;
5412;SDS011;2729;50.056;8.678;2023-04-24T09:10:51;2.30;;;1.70;;
5412;SDS011;2729;50.056;8.678;2023-04-24T09:13:18;1.60;;;1.60;;
5412;SDS011;2729;50.056;8.678;2023-04-24T09:15:45;1.50;;;1.40;;
5412;SDS011;2729;50.056;8.678;2023-04-24T09:18:11;2.10;;;1.73;;
5412;SDS011;2729;50.056;8.678;2023-04-24T09:23:27;1.80;;;1.70;;
5412;SDS011;2729;50.056;8.678;2023-04-24T09:25:54;4.53;;;1.60;;
5412;SDS011;2729;50.056;8.678;2023-04-24T09:28:25;2.00;;;1.80;;
5412;SDS011;2729;50.056;8.678;2023-04-24T09:33:53;1.60;;;1.50;;
5412;SDS011;2729;50.056;8.678;2023-04-24T09:36:26;4.40;;;1.90;;
5412;SDS011;2729;50.056;8.678;2023-04-24T09:38:55;1.70;;;1.60;;
5412;SDS011;2729;50.056;8.678;2023-04-24T09:41:23;1.97;;;1.73;;
5412;SDS011;2729;50.056;8.678;2023-04-24T09:43:49;9.50;;;2.03;;
5412;SDS011;2729;50.056;8.678;2023-04-24T09:46:15;2.20;;;1.70;;
5412;SDS011;2729;50.056;8.678;2023-04-24T09:48:44;1.60;;;1.50;;
5412;SDS011;2729;50.056;8.678;2023-04-24T09:51:10;1.87;;;1.60;;
5412;SDS011;2729;50.056;8.678;2023-04-24T09:53:36;1.30;;;1.30;;
5412;SDS011;2729;50.056;8.678;2023-04-24T09:56:09;1.83;;;1.73;;
5412;SDS011;2729;50.056;8.678;2023-04-24T09:58:36;1.57;;;1.47;;
5412;SDS011;2729;50.056;8.678;2023-04-24T10:01:02;1.70;;;1.60;;
5412;SDS011;2729;50.056;8.678;2023-04-24T10:03:34;1.60;;;1.50;;
5412;SDS011;2729;50.056;8.678;2023-04-24T10:06:01;1.97;;;1.57;;
5412;SDS011;2729;50.056;8.678;2023-04-24T10:08:34;1.60;;;1.50;;
5412;SDS011;2729;50.056;8.678;2023-04-24T10:11:02;1.63;;;1.53;;
5412;SDS011;2729;50.056;8.678;2023-04-24T10:13:28;1.03;;;1.03;;
5412;SDS011;2729;50.056;8.678;2023-04-24T10:15:54;1.17;;;1.17;;
5412;SDS011;2729;50.056;8.678;2023-04-24T10:18:21;1.47;;;1.37;;
5412;SDS011;2729;50.056;8.678;2023-04-24T10:20:49;1.80;;;1.60;;
5412;SDS011;2729;50.056;8.678;2023-04-24T10:23:15;1.00;;;1.00;;
5412;SDS011;2729;50.056;8.678;2023-04-24T10:25:44;1.80;;;1.70;;
5412;SDS011;2729;50.056;8.678;2023-04-24T10:28:10;1.17;;;1.10;;
5412;SDS011;2729;50.056;8.678;2023-04-24T10:30:37;1.77;;;1.53;;
5412;SDS011;2729;50.056;8.678;2023-04-24T10:33:05;3.83;;;1.33;;
5412;SDS011;2729;50.056;8.678;2023-04-24T10:35:43;1.10;;;1.10;;
5412;SDS011;2729;50.056;8.678;2023-04-24T10:38:15;1.60;;;1.50;;
5412;SDS011;2729;50.056;8.678;2023-04-24T10:40:44;1.13;;;1.13;;
5412;SDS011;2729;50.056;8.678;2023-04-24T10:43:10;1.10;;;1.10;;
5412;SDS011;2729;50.056;8.678;2023-04-24T10:45:37;1.60;;;1.50;;
5412;SDS011;2729;50.056;8.678;2023-04-24T10:48:04;1.17;;;1.17;;
5412;SDS011;2729;50.056;8.678;2023-04-24T10:53:17;1.30;;;1.23;;
5412;SDS011;2729;50.056;8.678;2023-04-24T10:55:45;3.23;;;1.20;;
5412;SDS011;2729;50.056;8.678;2023-04-24T10:58:16;1.17;;;1.07;;
5412;SDS011;2729;50.056;8.678;2023-04-24T11:00:55;1.30;;;1.20;;
5412;SDS011;2729;50.056;8.678;2023-04-24T11:03:23;1.40;;;1.40;;
5412;SDS011;2729;50.056;8.678;2023-04-24T11:06:04;1.43;;;1.40;;
5412;SDS011;2729;50.056;8.678;2023-04-24T11:08:32;1.40;;;1.30;;
5412;SDS011;2729;50.056;8.678;2023-04-24T11:16:38;1.67;;;1.60;;
5412;SDS011;2729;50.056;8.678;2023-04-24T11:21:48;1.40;;;1.40;;
5412;SDS011;2729;50.056;8.678;2023-04-24T11:27:14;1.27;;;1.20;;
5412;SDS011;2729;50.056;8.678;2023-04-24T11:32:39;1.30;;;1.20;;
5412;SDS011;2729;50.056;8.678;2023-04-24T11:35:13;0.80;;;0.80;;
5412;SDS011;2729;50.056;8.678;2023-04-24T11:37:44;1.17;;;1.17;;
5412;SDS011;2729;50.056;8.678;2023-04-24T11:40:12;2.00;;;0.87;;
5412;SDS011;2729;50.056;8.678;2023-04-24T11:42:41;0.97;;;0.93;;
5412;SDS011;2729;50.056;8.678;2023-04-24T11:45:09;0.70;;;0.70;;
5412;SDS011;2729;50.056;8.678;2023-04-24T11:47:39;0.93;;;0.90;;
5412;SDS011;2729;50.056;8.678;2023-04-24T11:50:07;0.90;;;0.90;;
5412;SDS011;2729;50.056;8.678;2023-04-24T11:52:39;1.20;;;1.10;;
5412;SDS011;2729;50.056;8.678;2023-04-24T11:55:24;1.07;;;1.07;;
5412;SDS011;2729;50.056;8.678;2023-04-24T11:57:56;1.13;;;1.13;;
5412;SDS011;2729;50.056;8.678;2023-04-24T12:00:24;1.13;;;1.03;;
5412;SDS011;2729;50.056;8.678;2023-04-24T12:03:02;3.43;;;0.83;;
5412;SDS011;2729;50.056;8.678;2023-04-24T12:05:30;0.70;;;0.70;;
5412;SDS011;2729;50.056;8.678;2023-04-24T12:08:00;0.90;;;0.90;;
5412;SDS011;2729;50.056;8.678;2023-04-24T12:10:27;0.70;;;0.70;;
5412;SDS011;2729;50.056;8.678;2023-04-24T12:12:55;0.90;;;0.90;;
5412;SDS011;2729;50.056;8.678;2023-04-24T12:15:22;1.03;;;0.80;;
5412;SDS011;2729;50.056;8.678;2023-04-24T12:17:50;1.00;;;1.00;;
5412;SDS011;2729;50.056;8.678;2023-04-24T12:20:22;0.97;;;0.97;;
5412;SDS011;2729;50.056;8.678;2023-04-24T12:22:50;0.87;;;0.87;;
5412;SDS011;2729;50.056;8.678;2023-04-24T12:25:20;2.83;;;1.00;;
5412;SDS011;2729;50.056;8.678;2023-04-24T12:30:29;1.20;;;1.07;;
5412;SDS011;2729;50.056;8.678;2023-04-24T12:32:57;2.10;;;1.33;;
5412;SDS011;2729;50.056;8.678;2023-04-24T12:35:24;1.53;;;1.43;;
5412;SDS011;2729;50.056;8.678;2023-04-24T12:37:53;1.17;;;1.17;;
5412;SDS011;2729;50.056;8.678;2023-04-24T12:40:20;1.20;;;1.20;;
5412;SDS011;2729;50.056;8.678;2023-04-24T12:45:14;1.40;;;1.20;;
5412;SDS011;2729;50.056;8.678;2023-04-24T12:47:42;1.50;;;1.40;;
5412;SDS011;2729;50.056;8.678;2023-04-24T12:50:10;1.40;;;1.30;;
5412;SDS011;2729;50.056;8.678;2023-04-24T12:52:37;4.50;;;2.47;;
5412;SDS011;2729;50.056;8.678;2023-04-24T12:55:04;2.57;;;2.20;;
5412;SDS011;2729;50.056;8.678;2023-04-24T12:57:33;3.43;;;1.80;;
5412;SDS011;2729;50.056;8.678;2023-04-24T13:00:01;1.70;;;1.60;;
5412;SDS011;2729;50.056;8.678;2023-04-24T13:02:29;3.00;;;2.33;;
5412;SDS011;2729;50.056;8.678;2023-04-24T13:04:57;2.13;;;2.03;;
5412;SDS011;2729;50.056;8.678;2023-04-24T13:07:24;4.90;;;2.27;;
5412;SDS011;2729;50.056;8.678;2023-04-24T13:09:51;2.10;;;1.90;;
5412;SDS011;2729;50.056;8.678;2023-04-24T13:12:18;3.23;;;2.00;;
5412;SDS011;2729;50.056;8.678;2023-04-24T13:14:45;2.00;;;1.90;;
5412;SDS011;2729;50.056;8.678;2023-04-24T13:17:11;2.27;;;2.17;;
5412;SDS011;2729;50.056;8.678;2023-04-24T13:19:39;2.60;;;2.40;;
5412;SDS011;2729;50.056;8.678;2023-04-24T13:22:06;2.60;;;2.20;;
5412;SDS011;2729;50.056;8.678;2023-04-24T13:24:32;2.80;;;2.20;;
5412;SDS011;2729;50.056;8.678;2023-04-24T13:26:59;3.73;;;2.07;;
5412;SDS011;2729;50.056;8.678;2023-04-24T13:29:26;2.17;;;1.97;;
5412;SDS011;2729;50.056;8.678;2023-04-24T13:31:52;2.40;;;2.00;;
5412;SDS011;2729;50.056;8.678;2023-04-24T13:34:24;5.57;;;2.33;;
5412;SDS011;2729;50.056;8.678;2023-04-24T13:36:54;2.30;;;1.83;;
5412;SDS011;2729;50.056;8.678;2023-04-24T13:39:22;1.90;;;1.80;;
5412;SDS011;2729;50.056;8.678;2023-04-24T13:41:48;4.63;;;2.13;;
5412;SDS011;2729;50.056;8.678;2023-04-24T13:44:15;2.40;;;2.20;;
5412;SDS011;2729;50.056;8.678;2023-04-24T13:46:43;3.50;;;2.20;;
5412;SDS011;2729;50.056;8.678;2023-04-24T13:49:11;2.10;;;2.00;;
5412;SDS011;2729;50.056;8.678;2023-04-24T13:51:40;1.63;;;1.53;;
5412;SDS011;2729;50.056;8.678;2023-04-24T13:54:07;2.30;;;2.10;;
5412;SDS011;2729;50.056;8.678;2023-04-24T13:56:33;2.03;;;1.93;;
5412;SDS011;2729;50.056;8.678;2023-04-24T13:58:59;1.83;;;1.73;;
5412;SDS011;2729;50.056;8.678;2023-04-24T14:01:26;2.53;;;2.10;;
5412;SDS011;2729;50.056;8.678;2023-04-24T14:03:52;2.90;;;1.60;;
5412;SDS011;2729;50.056;8.678;2023-04-24T14:06:19;3.93;;;2.10;;
5412;SDS011;2729;50.056;8.678;2023-04-24T14:08:45;1.63;;;1.60;;
5412;SDS011;2729;50.056;8.678;2023-04-24T14:11:12;2.13;;;2.00;;
5412;SDS011;2729;50.056;8.678;2023-04-24T14:13:39;2.17;;;2.07;;
5412;SDS011;2729;50.056;8.678;2023-04-24T14:16:06;2.37;;;2.13;;
5412;SDS011;2729;50.056;8.678;2023-04-24T14:18:32;2.30;;;2.20;;
5412;SDS011;2729;50.056;8.678;2023-04-24T14:20:59;3.37;;;2.10;;
5412;SDS011;2729;50.056;8.678;2023-04-24T14:23:26;3.17;;;2.43;;
5412;SDS011;2729;50.056;8.678;2023-04-24T14:25:52;4.93;;;2.17;;
5412;SDS011;2729;50.056;8.678;2023-04-24T14:28:19;3.03;;;2.13;;
5412;SDS011;2729;50.056;8.678;2023-04-24T14:30:46;3.67;;;1.90;;
5412;SDS011;2729;50.056;8.678;2023-04-24T14:33:12;8.50;;;2.00;;
5412;SDS011;2729;50.056;8.678;2023-04-24T14:35:39;2.03;;;1.93;;
5412;SDS011;2729;50.056;8.678;2023-04-24T14:38:06;2.50;;;2.30;;
5412;SDS011;2729;50.056;8.678;2023-04-24T14:40:32;3.10;;;1.77;;
5412;SDS011;2729;50.056;8.678;2023-04-24T14:42:58;5.23;;;2.43;;
5412;SDS011;2729;50.056;8.678;2023-04-24T14:45:24;1.97;;;1.87;;
5412;SDS011;2729;50.056;8.678;2023-04-24T14:47:53;3.00;;;2.43;;
5412;SDS011;2729;50.056;8.678;2023-04-24T14:50:20;2.10;;;2.00;;
5412;SDS011;2729;50.056;8.678;2023-04-24T14:52:47;2.60;;;2.17;;
5412;SDS011;2729;50.056;8.678;2023-04-24T14:55:13;1.80;;;1.70;;
5412;SDS011;2729;50.056;8.678;2023-04-24T14:57:39;2.40;;;2.23;;
5412;SDS011;2729;50.056;8.678;2023-04-24T15:00:05;3.03;;;2.10;;
5412;SDS011;2729;50.056;8.678;2023-04-24T15:02:34;2.10;;;1.90;;
5412;SDS011;2729;50.056;8.678;2023-04-24T15:05:02;2.60;;;2.10;;
5412;SDS011;2729;50.056;8.678;2023-04-24T15:07:29;2.77;;;2.03;;
5412;SDS011;2729;50.056;8.678;2023-04-24T15:09:56;2.43;;;1.90;;
5412;SDS011;2729;50.056;8.678;2023-04-24T15:12:22;2.10;;;2.00;;
5412;SDS011;2729;50.056;8.678;2023-04-24T15:14:48;2.10;;;1.80;;
5412;SDS011;2729;50.056;8.678;2023-04-24T15:17:14;2.00;;;1.83;;
5412;SDS011;2729;50.056;8.678;2023-04-24T15:19:40;4.30;;;2.30;;
5412;SDS011;2729;50.056;8.678;2023-04-24T15:22:06;4.03;;;2.07;;
5412;SDS011;2729;50.056;8.678;2023-04-24T15:24:32;1.73;;;1.63;;
5412;SDS011;2729;50.056;8.678;2023-04-24T15:26:58;2.90;;;2.30;;
5412;SDS011;2729;50.056;8.678;2023-04-24T15:29:25;2.10;;;2.00;;
5412;SDS011;2729;50.056;8.678;2023-04-24T15:31:52;2.37;;;2.17;;
5412;SDS011;2729;50.056;8.678;2023-04-24T15:34:19;1.70;;;1.60;;
5412;SDS011;2729;50.056;8.678;2023-04-24T15:36:45;2.87;;;2.00;;
5412;SDS011;2729;50.056;8.678;2023-04-24T15:39:11;3.50;;;2.13;;
5412;SDS011;2729;50.056;8.678;2023-04-24T15:41:37;1.70;;;1.60;;
5412;SDS011;2729;50.056;8.678;2023-04-24T15:44:03;3.90;;;2.07;;